Bronson, Ohio
Current Conditions -  °F | °C
As of 12:53 PM on Saturday 25 Oct 2014 (Local Time) from KLPR Reporting Station
Haze Haze  
Wind Chill: 66°   Ceiling: Unl
Heat Index: 66°   Visibility: 6mi
Dew Point: 52°   Wind: 20mph
Humidity: 60%   Direction: 280°W
Pressure: 29.82"   Gusts: 24mph
Location:  41.2186°N, 82.5851°W
Report Text: KLPR 251653Z AUTO 28017G21KT 6SM HZ CLR 19/11 A2982 RMK AO2 SLP095 T01890111 TSNO
Loading
Personal Weather Stations






























Interactive Weather Map
Tropical Storm Tracking
New forecast layout! Learn more

10-Day Weather Forecast

Advertisements
Track Severe Weather on mobile